Time;durP1;ratioP1;P1;durP2;ratioP2;P2;SDS_P1;SDS_P2;PMS_P1;PMS_P2;Temp;Humidity;BMP_temperature;BMP_pressure;BME280_temperature;BME280_humidity;BME280_pressure;Samples;Min_cycle;Max_cycle;Signal;HPM_P1;HPM_P2
2022/05/25 00:01:00;;;;;;;183.02;175.07;;;9.00;99.90;;;;;;5132742;28;20042;-60
2022/05/25 00:03:27;;;;;;;178.93;170.98;;;9.00;99.90;;;;;;5132746;28;20097;-60
2022/05/25 00:05:54;;;;;;;149.85;143.27;;;8.90;99.90;;;;;;5114665;28;20058;-60
2022/05/25 00:08:20;;;;;;;120.28;115.05;;;8.90;99.90;;;;;;5134723;27;20404;-59
2022/05/25 00:10:45;;;;;;;148.80;142.32;;;8.90;99.90;;;;;;5096766;28;20135;-60
2022/05/25 00:13:11;;;;;;;141.57;135.40;;;8.80;99.90;;;;;;5116476;28;20046;-60
2022/05/25 00:15:37;;;;;;;118.00;112.68;;;8.80;99.90;;;;;;5116179;28;20067;-60
2022/05/25 00:18:03;;;;;;;126.13;120.28;;;8.70;99.90;;;;;;5115498;28;20122;-60
2022/05/25 00:20:29;;;;;;;137.55;131.15;;;8.60;99.90;;;;;;5136585;27;20050;-60
2022/05/25 00:22:57;;;;;;;137.68;131.18;;;8.60;99.90;;;;;;5118239;27;20047;-59
2022/05/25 00:25:29;;;;;;;118.95;112.95;;;8.60;99.90;;;;;;5135768;27;20051;-60
2022/05/25 00:27:55;;;;;;;124.27;118.67;;;8.50;99.90;;;;;;5136553;27;20392;-60
2022/05/25 00:30:21;;;;;;;125.13;119.43;;;8.50;99.90;;;;;;5136414;27;20051;-60
2022/05/25 00:32:47;;;;;;;129.82;123.75;;;8.50;99.90;;;;;;5135662;27;20477;-60
2022/05/25 00:35:16;;;;;;;126.15;120.47;;;8.50;99.90;;;;;;5136478;27;20050;-60
2022/05/25 00:37:42;;;;;;;129.15;123.10;;;8.50;99.90;;;;;;5135697;27;20097;-60
2022/05/25 00:40:12;;;;;;;134.00;127.95;;;8.50;99.90;;;;;;5135643;27;20051;-60
2022/05/25 00:42:38;;;;;;;142.60;136.23;;;8.50;99.90;;;;;;5136432;27;20465;-60
2022/05/25 00:45:06;;;;;;;149.00;142.25;;;8.50;99.90;;;;;;5113967;28;20086;-60
2022/05/25 00:47:35;;;;;;;158.27;151.20;;;8.40;99.90;;;;;;5114947;28;20043;-59
2022/05/25 00:50:02;;;;;;;143.68;137.05;;;8.40;99.90;;;;;;5114172;28;20054;-60
2022/05/25 00:52:28;;;;;;;148.02;141.38;;;8.30;99.90;;;;;;5114673;28;20051;-60
2022/05/25 00:54:58;;;;;;;139.70;133.15;;;8.40;99.90;;;;;;5113944;28;20611;-60
2022/05/25 00:57:33;;;;;;;135.18;128.98;;;8.40;99.90;;;;;;5114189;28;20405;-60
2022/05/25 01:00:09;;;;;;;142.15;135.30;;;8.40;99.90;;;;;;5118684;27;20091;-60
2022/05/25 01:02:40;;;;;;;215.23;204.82;;;8.40;99.90;;;;;;5135589;27;20497;-60
2022/05/25 01:05:06;;;;;;;163.32;155.65;;;8.50;99.90;;;;;;5135878;27;20043;-60
2022/05/25 01:07:32;;;;;;;202.23;192.43;;;8.90;99.90;;;;;;5134830;27;20405;-60
2022/05/25 01:10:15;;;;;;;172.90;164.88;;;9.00;99.90;;;;;;5117226;27;20058;-60
2022/05/25 01:13:00;;;;;;;116.53;110.60;;;9.20;99.90;;;;;;5135536;27;20058;-60
2022/05/25 01:15:46;;;;;;;152.38;145.38;;;9.30;99.90;;;;;;5134451;27;20103;-60
2022/05/25 01:18:34;;;;;;;125.43;119.20;;;9.50;99.90;;;;;;5135569;27;20085;-60
2022/05/25 01:21:02;;;;;;;171.57;163.55;;;9.60;99.90;;;;;;5133544;27;20035;-60
2022/05/25 01:23:56;;;;;;;166.77;158.90;;;9.60;99.90;;;;;;5135699;27;20097;-60
2022/05/25 01:26:42;;;;;;;128.90;122.85;;;9.60;99.90;;;;;;5135667;27;20035;-60
2022/05/25 01:29:32;;;;;;;112.47;107.00;;;9.80;99.90;;;;;;5115300;27;20051;-60
2022/05/25 01:32:05;;;;;;;111.20;105.90;;;9.70;99.90;;;;;;5135158;27;20086;-60
2022/05/25 01:34:40;;;;;;;212.75;203.25;;;9.50;99.90;;;;;;5135576;27;20039;-60
2022/05/25 01:37:16;;;;;;;166.73;158.73;;;9.30;99.90;;;;;;5135016;27;20079;-60
2022/05/25 01:39:49;;;;;;;123.20;117.22;;;9.10;99.90;;;;;;5134931;27;20054;-60
2022/05/25 01:42:29;;;;;;;132.75;126.18;;;9.00;99.90;;;;;;5134468;27;20476;-60
2022/05/25 01:45:05;;;;;;;133.52;127.10;;;8.90;99.90;;;;;;5114462;28;20496;-60
2022/05/25 01:47:33;;;;;;;139.18;132.73;;;8.80;99.90;;;;;;5122659;27;20049;-60
2022/05/25 01:50:10;;;;;;;143.02;136.27;;;8.70;99.90;;;;;;5134337;27;20043;-60
2022/05/25 01:52:43;;;;;;;165.30;157.68;;;8.70;99.90;;;;;;5116402;27;20047;-59
2022/05/25 01:55:14;;;;;;;262.40;249.57;;;8.70;99.90;;;;;;5116304;27;20049;-59
2022/05/25 01:57:47;;;;;;;148.75;141.55;;;8.70;99.90;;;;;;5133473;27;20054;-59
2022/05/25 02:00:26;;;;;;;126.80;120.40;;;8.70;99.90;;;;;;5135021;27;20114;-60
2022/05/25 02:05:40;;;;;;;139.77;132.93;;;8.90;99.90;;;;;;5111948;28;20096;-60
2022/05/25 02:08:27;;;;;;;138.88;132.05;;;9.00;99.90;;;;;;5112802;28;20106;-59
2022/05/25 02:11:16;;;;;;;116.70;110.80;;;9.00;99.90;;;;;;5113636;28;20396;-59
2022/05/25 02:13:55;;;;;;;120.47;114.30;;;8.90;99.90;;;;;;5118677;27;20047;-59
2022/05/25 02:16:40;;;;;;;122.47;116.40;;;8.80;99.90;;;;;;5134625;27;20032;-59
2022/05/25 02:19:26;;;;;;;151.88;144.48;;;8.80;99.90;;;;;;5133823;27;20058;-59
2022/05/25 02:21:54;;;;;;;125.15;118.50;;;8.80;99.90;;;;;;5134307;27;20054;-59
2022/05/25 02:24:33;;;;;;;180.00;171.50;;;8.90;99.90;;;;;;5133198;27;20387;-59
2022/05/25 02:27:05;;;;;;;220.75;210.38;;;8.90;99.90;;;;;;5115849;27;20477;-59
2022/05/25 02:29:36;;;;;;;196.07;186.32;;;8.80;99.90;;;;;;5115460;27;20050;-59
2022/05/25 02:32:10;;;;;;;177.48;168.48;;;8.90;99.90;;;;;;5133194;27;20047;-59
2022/05/25 02:34:39;;;;;;;184.50;175.57;;;8.80;99.90;;;;;;5133825;27;20047;-60
2022/05/25 02:37:05;;;;;;;262.02;248.60;;;8.80;99.90;;;;;;5115602;27;20047;-59
2022/05/25 02:39:32;;;;;;;212.95;202.38;;;8.90;99.90;;;;;;5133551;27;20047;-59
2022/05/25 02:41:57;;;;;;;192.63;183.02;;;8.90;99.90;;;;;;5133341;27;20087;-59
2022/05/25 02:44:24;;;;;;;164.32;155.68;;;9.10;99.90;;;;;;5134143;27;20506;-59
2022/05/25 02:46:50;;;;;;;171.25;162.80;;;9.10;99.90;;;;;;5133604;27;20125;-59
2022/05/25 02:49:16;;;;;;;222.45;211.55;;;9.20;99.90;;;;;;5133251;27;20128;-59
2022/05/25 02:51:43;;;;;;;255.30;242.90;;;9.00;99.90;;;;;;5115249;27;20493;-59
2022/05/25 02:54:09;;;;;;;208.05;197.98;;;9.00;99.90;;;;;;5115126;27;20047;-59
2022/05/25 02:56:36;;;;;;;190.05;180.93;;;8.90;99.90;;;;;;5134071;27;20126;-59
2022/05/25 02:59:02;;;;;;;257.23;244.30;;;8.80;99.90;;;;;;5132511;27;20039;-59
2022/05/25 03:01:28;;;;;;;184.38;174.15;;;8.90;99.90;;;;;;5133745;27;20035;-59
2022/05/25 03:03:54;;;;;;;145.23;137.13;;;9.00;99.90;;;;;;5133577;27;20051;-59
2022/05/25 03:06:21;;;;;;;129.30;121.80;;;9.20;99.90;;;;;;5132465;27;20053;-60
2022/05/25 03:08:47;;;;;;;181.27;171.23;;;9.40;99.90;;;;;;5133658;27;20047;-60
2022/05/25 03:11:13;;;;;;;143.80;135.88;;;9.40;99.90;;;;;;5133857;28;20043;-60
2022/05/25 03:13:38;;;;;;;150.40;142.00;;;9.40;99.90;;;;;;5132606;28;20034;-60
2022/05/25 03:16:07;;;;;;;194.75;184.35;;;9.40;99.90;;;;;;5133173;28;20046;-60
2022/05/25 03:18:34;;;;;;;134.40;127.18;;;9.40;99.90;;;;;;5133800;28;20051;-59
2022/05/25 03:21:00;;;;;;;173.13;163.95;;;9.30;99.90;;;;;;5114385;28;20051;-60
2022/05/25 03:23:26;;;;;;;157.02;148.23;;;9.30;99.90;;;;;;5133527;28;20053;-60
2022/05/25 03:25:52;;;;;;;165.60;156.75;;;9.20;99.90;;;;;;5133310;28;20198;-60
2022/05/25 03:28:17;;;;;;;182.07;172.57;;;9.30;99.90;;;;;;5132730;28;20053;-60
2022/05/25 03:30:45;;;;;;;185.85;175.98;;;9.30;99.90;;;;;;5133256;28;20039;-60
2022/05/25 03:33:11;;;;;;;158.35;149.88;;;9.40;99.90;;;;;;5111193;28;20089;-60
2022/05/25 03:35:37;;;;;;;214.88;203.65;;;9.40;99.90;;;;;;5112152;28;20055;-60
2022/05/25 03:38:04;;;;;;;222.07;210.70;;;9.60;99.90;;;;;;5112820;28;20047;-60
2022/05/25 03:40:30;;;;;;;174.85;165.25;;;9.50;99.90;;;;;;5112854;28;20052;-60
2022/05/25 03:42:57;;;;;;;126.30;119.30;;;9.40;99.90;;;;;;5124288;27;20085;-60
2022/05/25 03:45:23;;;;;;;151.85;143.82;;;9.50;99.90;;;;;;5119034;27;20108;-60
2022/05/25 03:47:49;;;;;;;155.38;147.05;;;9.40;99.90;;;;;;5137598;27;20480;-60
2022/05/25 03:50:18;;;;;;;141.10;133.48;;;9.50;99.90;;;;;;5136316;27;20079;-60
2022/05/25 03:52:44;;;;;;;139.13;131.60;;;9.40;99.90;;;;;;5137102;27;20051;-60
2022/05/25 03:55:10;;;;;;;139.32;131.18;;;9.40;99.90;;;;;;5137588;27;20047;-60
2022/05/25 03:57:36;;;;;;;128.20;120.85;;;9.50;99.90;;;;;;5136285;27;20085;-60
2022/05/25 04:00:04;;;;;;;147.90;139.88;;;9.50;99.90;;;;;;5118153;27;20079;-60
2022/05/25 04:02:30;;;;;;;126.47;119.55;;;9.50;99.90;;;;;;5136569;27;20126;-60
2022/05/25 04:05:07;;;;;;;124.93;117.93;;;9.50;99.90;;;;;;5136559;27;20122;-60
2022/05/25 04:07:36;;;;;;;137.63;129.98;;;9.50;99.90;;;;;;5137229;27;20043;-60
2022/05/25 04:10:04;;;;;;;134.73;127.18;;;9.60;99.90;;;;;;5113768;28;20498;-60
2022/05/25 04:12:30;;;;;;;132.85;125.57;;;9.50;99.90;;;;;;5116235;28;20054;-60
2022/05/25 04:14:55;;;;;;;178.43;169.25;;;9.60;99.90;;;;;;5116550;28;20465;-60
2022/05/25 04:17:21;;;;;;;174.43;165.32;;;9.60;99.90;;;;;;5118369;27;20079;-60
2022/05/25 04:19:47;;;;;;;171.82;162.73;;;9.60;99.90;;;;;;5117925;27;20047;-60
2022/05/25 04:22:12;;;;;;;157.07;148.82;;;9.70;99.90;;;;;;5136815;27;20047;-60
2022/05/25 04:24:38;;;;;;;180.82;171.02;;;9.70;99.90;;;;;;5136052;27;20434;-60
2022/05/25 04:27:04;;;;;;;181.38;171.98;;;9.70;99.90;;;;;;5135938;27;20055;-60
2022/05/25 04:29:30;;;;;;;176.20;167.27;;;9.70;99.90;;;;;;5136709;27;20035;-60
2022/05/25 04:31:55;;;;;;;166.10;157.32;;;9.80;99.90;;;;;;5135936;27;20184;-60
2022/05/25 04:34:21;;;;;;;175.32;166.60;;;9.80;99.90;;;;;;5136337;27;20043;-60
2022/05/25 04:36:47;;;;;;;140.02;132.30;;;9.80;99.90;;;;;;5136052;27;20481;-60
2022/05/25 04:39:12;;;;;;;168.63;160.05;;;9.80;99.90;;;;;;5117268;27;20122;-60
2022/05/25 04:41:38;;;;;;;180.30;170.82;;;9.80;99.90;;;;;;5135765;27;20051;-60
2022/05/25 04:44:04;;;;;;;145.85;137.80;;;9.80;99.90;;;;;;5136164;27;20054;-60
2022/05/25 04:46:30;;;;;;;130.80;123.75;;;9.90;99.90;;;;;;5135629;27;20071;-60
2022/05/25 04:48:57;;;;;;;146.13;138.38;;;9.90;99.90;;;;;;5135375;27;20093;-60
2022/05/25 04:51:22;;;;;;;128.93;121.80;;;10.00;99.90;;;;;;5117450;27;20525;-60
2022/05/25 04:53:49;;;;;;;139.15;131.75;;;10.00;99.90;;;;;;5134131;27;20036;-60
2022/05/25 04:58:59;;;;;;;124.63;117.85;;;10.10;99.90;;;;;;5135408;27;20039;-60
2022/05/25 05:01:25;;;;;;;174.07;163.90;;;10.10;99.90;;;;;;5117416;27;20074;-60
2022/05/25 05:03:51;;;;;;;142.23;134.75;;;10.10;99.90;;;;;;5135726;27;20075;-60
2022/05/25 05:06:17;;;;;;;142.35;134.65;;;10.20;99.90;;;;;;5135221;27;20043;-60
2022/05/25 05:08:43;;;;;;;132.00;124.85;;;10.20;99.90;;;;;;5136025;27;20051;-60
2022/05/25 05:11:17;;;;;;;121.47;114.90;;;10.40;99.90;;;;;;5135323;27;20091;-60
2022/05/25 05:13:44;;;;;;;122.13;115.03;;;10.30;99.90;;;;;;5116924;27;20043;-60
2022/05/25 05:16:13;;;;;;;143.45;135.38;;;10.30;99.90;;;;;;5117143;27;20472;-60
2022/05/25 05:18:41;;;;;;;178.52;169.65;;;10.40;99.90;;;;;;5135331;27;20665;-60
2022/05/25 05:21:25;;;;;;;166.27;158.05;;;10.40;99.90;;;;;;5116580;27;20051;-60
2022/05/25 05:23:51;;;;;;;167.25;159.10;;;10.50;99.90;;;;;;5135859;27;20051;-60
2022/05/25 05:26:17;;;;;;;157.77;149.98;;;10.60;99.90;;;;;;5135226;27;20039;-60
2022/05/25 05:28:44;;;;;;;165.70;156.85;;;10.70;99.90;;;;;;5134065;27;20497;-60
2022/05/25 05:31:11;;;;;;;134.50;127.38;;;10.80;99.90;;;;;;5135477;27;20035;-60
2022/05/25 05:33:37;;;;;;;151.25;143.75;;;10.90;99.90;;;;;;5134872;27;20503;-60
2022/05/25 05:36:14;;;;;;;191.48;182.23;;;10.90;99.90;;;;;;5134657;27;20047;-60
2022/05/25 05:38:56;;;;;;;195.98;186.27;;;11.00;99.90;;;;;;5135189;27;20509;-60
2022/05/25 05:41:26;;;;;;;238.43;227.27;;;11.10;99.90;;;;;;5133990;27;20066;-60
2022/05/25 05:43:52;;;;;;;261.85;249.68;;;11.20;99.90;;;;;;5116709;27;20115;-60
2022/05/25 05:46:19;;;;;;;161.52;153.82;;;11.30;99.90;;;;;;5134602;27;20408;-60
2022/05/25 05:48:45;;;;;;;119.20;113.10;;;11.30;99.90;;;;;;5133878;27;20064;-60
2022/05/25 05:51:12;;;;;;;147.57;140.30;;;11.40;99.90;;;;;;5135067;27;20103;-60
2022/05/25 05:53:40;;;;;;;126.20;119.63;;;11.40;99.90;;;;;;5135257;27;20122;-60
2022/05/25 05:56:07;;;;;;;131.63;125.07;;;11.50;99.90;;;;;;5133424;27;20095;-60
2022/05/25 05:58:32;;;;;;;161.50;153.23;;;11.60;99.90;;;;;;5134712;27;20489;-60
2022/05/25 06:00:58;;;;;;;163.55;155.40;;;11.60;99.90;;;;;;5134707;27;20035;-60
2022/05/25 06:03:24;;;;;;;153.25;145.75;;;11.70;99.90;;;;;;5115250;27;20042;-60
2022/05/25 06:05:50;;;;;;;117.95;112.03;;;11.80;99.90;;;;;;5134482;27;20043;-60
2022/05/25 06:08:21;;;;;;;124.72;118.20;;;11.90;99.90;;;;;;5134835;27;20777;-60
2022/05/25 06:10:46;;;;;;;;;;;12.00;99.90;;;;;;5133227;27;20130;-60
2022/05/25 06:13:12;;;;;;;;;;;12.10;99.90;;;;;;5111097;28;20095;-60
2022/05/25 06:21:07;;;;;;;;;;;12.10;99.90;;;;;;5114274;27;19926;-60
2022/05/25 06:23:33;;;;;;;;;;;12.20;99.90;;;;;;5132547;27;20063;-60
2022/05/25 06:25:59;;;;;;;;;;;12.30;99.90;;;;;;5114043;27;20437;-60
2022/05/25 06:28:24;;;;;;;;;;;12.30;99.90;;;;;;5114686;27;20056;-60
2022/05/25 06:30:50;;;;;;;;;;;12.40;99.90;;;;;;5113253;27;19923;-60
2022/05/25 06:33:16;;;;;;;;;;;12.50;99.90;;;;;;5114168;27;19972;-60
2022/05/25 06:35:41;;;;;;;;;;;12.60;99.90;;;;;;5132707;27;19919;-60
2022/05/25 06:38:07;;;;;;;;;;;12.60;99.90;;;;;;5131104;27;19920;-61
2022/05/25 06:40:33;;;;;;;;;;;12.70;99.90;;;;;;5131325;27;20027;-60
2022/05/25 06:42:58;;;;;;;;;;;12.80;99.90;;;;;;5132526;27;19980;-60
2022/05/25 06:45:26;;;;;;;;;;;;;;;;;;5131488;27;19923;-60
2022/05/25 06:47:51;;;;;;;;;;;13.30;99.90;;;;;;5131287;27;20585;-60
2022/05/25 06:50:17;;;;;;;;;;;13.30;99.90;;;;;;5131930;27;19925;-60
2022/05/25 06:52:43;;;;;;;;;;;;;;;;;;5131553;27;20410;-61
2022/05/25 06:55:09;;;;;;;;;;;13.40;99.90;;;;;;5131157;27;19950;-60
2022/05/25 06:57:35;;;;;;;;;;;13.40;99.90;;;;;;5131597;27;19919;-60
2022/05/25 07:00:00;;;;;;;;;;;13.60;99.90;;;;;;5131132;27;20285;-60
2022/05/25 07:02:26;;;;;;;;;;;13.50;99.90;;;;;;5131597;27;19919;-60
2022/05/25 07:04:53;;;;;;;;;;;13.60;99.90;;;;;;5131208;27;20055;-60
2022/05/25 07:07:19;;;;;;;62.80;58.75;;;13.80;99.90;;;;;;5131205;27;19974;-61
2022/05/25 07:09:45;;;;;;;60.33;56.83;;;14.00;99.90;;;;;;5113553;28;20513;-61
2022/05/25 07:12:10;;;;;;;56.25;53.10;;;14.00;99.90;;;;;;5113230;28;20115;-61
2022/05/25 07:14:39;;;;;;;56.28;52.97;;;14.10;99.90;;;;;;5123887;28;20130;-61
2022/05/25 07:17:06;;;;;;;65.20;61.70;;;14.00;99.90;;;;;;5114338;28;20066;-61
2022/05/25 07:19:32;;;;;;;50.45;47.10;;;14.10;99.90;;;;;;5136389;27;20043;-61
2022/05/25 07:21:58;;;;;;;56.25;52.65;;;14.10;99.90;;;;;;5138025;27;20042;-61
2022/05/25 07:24:24;;;;;;;68.20;63.38;;;14.10;99.90;;;;;;5136267;27;20047;-61
2022/05/25 07:26:50;;;;;;;57.22;54.30;;;14.20;99.90;;;;;;5136629;27;20114;-61
2022/05/25 07:29:15;;;;;;;68.80;65.00;;;14.30;99.90;;;;;;5118966;27;20515;-61
2022/05/25 07:31:46;;;;;;;52.10;49.28;;;14.20;99.90;;;;;;5136741;27;20039;-61
2022/05/25 07:34:14;;;;;;;56.78;53.85;;;14.40;99.90;;;;;;5114568;28;20058;-61
2022/05/25 07:36:43;;;;;;;56.35;53.53;;;14.50;99.90;;;;;;5115407;28;20055;-61
2022/05/25 07:39:13;;;;;;;55.80;52.70;;;14.60;99.90;;;;;;5116688;28;20054;-61
2022/05/25 07:41:47;;;;;;;58.33;55.33;;;14.60;99.90;;;;;;5124581;27;20374;-61
2022/05/25 07:44:17;;;;;;;59.38;55.72;;;14.70;99.90;;;;;;5118937;27;20043;-61
2022/05/25 07:46:43;;;;;;;46.45;43.70;;;14.80;99.90;;;;;;5136904;27;20043;-61
2022/05/25 07:49:08;;;;;;;49.08;46.28;;;14.70;99.90;;;;;;5136052;27;20042;-61
2022/05/25 07:51:34;;;;;;;49.38;46.35;;;14.90;99.90;;;;;;5135649;27;20050;-61
2022/05/25 07:54:01;;;;;;;47.65;44.63;;;14.90;99.90;;;;;;5136466;27;20039;-61
2022/05/25 07:56:30;;;;;;;43.35;40.83;;;15.00;99.90;;;;;;5135525;27;20504;-61
2022/05/25 07:58:57;;;;;;;47.08;44.38;;;15.10;99.90;;;;;;5136082;27;20043;-61
2022/05/25 08:06:56;;;;;;;45.95;43.15;;;15.20;99.90;;;;;;5137026;27;20043;-61
2022/05/25 08:09:23;;;;;;;65.50;61.33;;;15.30;99.90;;;;;;5115875;27;20047;-61
2022/05/25 08:11:49;;;;;;;48.10;45.55;;;15.10;99.90;;;;;;5136478;27;20031;-61
2022/05/25 08:14:16;;;;;;;50.03;47.17;;;15.20;99.90;;;;;;5136042;27;20065;-61
2022/05/25 08:16:42;;;;;;;53.08;50.45;;;15.20;99.90;;;;;;5134249;27;20043;-61
2022/05/25 08:19:08;;;;;;;50.15;47.63;;;15.40;99.90;;;;;;5118428;27;20488;-61
2022/05/25 08:21:33;;;;;;;57.20;54.35;;;15.50;99.90;;;;;;5136755;27;20051;-61
2022/05/25 08:23:59;;;;;;;60.90;58.03;;;;;;;;;;5134132;27;20126;-61
2022/05/25 08:26:25;;;;;;;63.90;60.42;;;15.70;99.90;;;;;;5116511;27;20058;-61
2022/05/25 08:28:53;;;;;;;75.68;72.25;;;;;;;;;;5117327;27;20043;-61
2022/05/25 08:31:19;;;;;;;83.75;79.95;;;16.30;99.90;;;;;;5135465;27;20477;-61
2022/05/25 08:33:45;;;;;;;90.18;86.05;;;16.50;99.90;;;;;;5134914;27;20061;-61
2022/05/25 08:36:11;;;;;;;94.18;90.13;;;16.50;99.90;;;;;;5117845;27;20439;-61
2022/05/25 08:38:36;;;;;;;87.35;83.28;;;16.30;99.90;;;;;;5116381;27;20125;-61
2022/05/25 08:41:02;;;;;;;89.03;85.07;;;16.40;99.90;;;;;;5117058;27;20375;-61
2022/05/25 08:43:38;;;;;;;85.32;81.15;;;16.50;99.90;;;;;;5116281;27;20556;-61
2022/05/25 08:46:13;;;;;;;87.10;83.05;;;;;;;;;;5135841;27;20046;-61
2022/05/25 08:48:39;;;;;;;77.43;73.80;;;;;;;;;;5135933;27;20070;-61
2022/05/25 08:51:07;;;;;;;80.50;76.90;;;;;;;;;;5135193;27;20041;-61
2022/05/25 08:53:35;;;;;;;85.53;81.38;;;;;;;;;;5134425;27;20043;-61
2022/05/25 08:56:18;;;;;;;79.32;75.88;;;;;;;;;;5135372;27;20125;-61
2022/05/25 08:58:48;;;;;;;76.30;72.93;;;;;;;;;;5116477;27;20047;-61
2022/05/25 09:01:25;;;;;;;65.97;62.88;;;17.00;99.90;;;;;;5135102;27;20095;-61
2022/05/25 09:04:17;;;;;;;58.97;56.40;;;17.10;99.90;;;;;;5135788;27;20396;-61
2022/05/25 09:07:02;;;;;;;54.38;51.88;;;17.20;99.90;;;;;;5135314;27;20051;-61
2022/05/25 09:09:35;;;;;;;51.33;48.35;;;;;;;;;;5135605;27;20534;-61
2022/05/25 09:12:01;;;;;;;;;;;;;;;;;;5135778;27;20050;-61
2022/05/25 09:14:29;;;;;;;49.83;47.55;;;;;;;;;;5135599;27;19923;-61
2022/05/25 09:16:57;;;;;;;44.78;42.42;;;;;;;;;;5135816;27;20116;-61
2022/05/25 09:19:26;;;;;;;62.40;58.45;;;;;;;;;;5134657;27;20082;-61
2022/05/25 09:21:56;;;;;;;40.97;39.05;;;;;;;;;;5135449;27;20047;-61
2022/05/25 09:24:23;;;;;;;72.72;65.88;;;;;;;;;;5135670;27;20062;-61
2022/05/25 09:26:49;;;;;;;40.20;38.22;;;;;;;;;;5134607;27;20481;-61
2022/05/25 09:29:16;;;;;;;37.50;35.45;;;;;;;;;;5134878;27;20051;-61
2022/05/25 09:31:49;;;;;;;107.30;79.35;;;;;;;;;;5117237;27;20088;-61
2022/05/25 09:34:18;;;;;;;48.47;45.85;;;;;;;;;;5134735;27;20039;-61
2022/05/25 09:36:53;;;;;;;40.97;38.92;;;;;;;;;;5134709;27;20043;-61
2022/05/25 09:39:25;;;;;;;57.38;53.85;;;;;;;;;;5135163;27;20505;-61
2022/05/25 09:41:55;;;;;;;42.00;39.88;;;;;;;;;;5133579;27;20066;-61
2022/05/25 09:44:23;;;;;;;42.70;40.58;;;;;;;;;;5112830;28;20054;-61
2022/05/25 09:46:52;;;;;;;325.13;168.45;;;;;;;;;;5109368;27;20408;-61
2022/05/25 09:49:28;;;;;;;53.08;50.50;;;;;;;;;;5127018;27;20120;-61
2022/05/25 09:51:55;;;;;;;53.75;51.22;;;;;;;;;;5116404;27;20070;-61
2022/05/25 09:54:21;;;;;;;82.88;75.10;;;;;;;;;;5133337;27;20083;-61
2022/05/25 09:56:51;;;;;;;58.75;55.40;;;;;;;;;;5115958;27;20185;-61
2022/05/25 09:59:23;;;;;;;51.28;48.88;;;;;;;;;;5133914;27;20539;-61
2022/05/25 10:01:52;;;;;;;50.45;48.00;;;;;;;;;;5134035;27;20043;-61
2022/05/25 10:04:34;;;;;;;62.33;59.20;;;;;;;;;;5134562;27;20050;-61
2022/05/25 10:07:00;;;;;;;139.18;113.63;;;;;;;;;;5111513;28;20391;-61
2022/05/25 10:09:29;;;;;;;94.63;81.78;;;;;;;;;;5121611;27;20114;-61
2022/05/25 10:12:16;;;;;;;58.08;55.05;;;;;;;;;;5133905;27;20043;-61
2022/05/25 10:14:53;;;;;;;171.70;104.90;;;;;;;;;;5133580;27;20066;-61
2022/05/25 10:17:30;;;;;;;52.10;48.88;;;;;;;;;;5132153;27;20046;-61
2022/05/25 10:19:57;;;;;;;52.22;49.63;;;;;;;;;;5132053;27;20484;-61
2022/05/25 10:22:42;;;;;;;48.88;46.58;;;;;;;;;;5115390;27;20051;-61
2022/05/25 10:25:10;;;;;;;48.97;46.65;;;;;;;;;;5134305;27;20469;-61
2022/05/25 10:27:38;;;;;;;44.75;42.58;;;;;;;;;;5133803;27;20504;-61
2022/05/25 10:38:41;;;;;;;61.25;56.95;;;;;;;;;;5133002;27;20405;-61
2022/05/25 10:41:41;;;;;;;63.63;59.58;;;;;;;;;;5133732;27;20103;-61
2022/05/25 10:44:08;;;;;;;107.00;99.10;;;;;;;;;;5122136;27;20381;-61
2022/05/25 10:46:33;;;;;;;172.95;156.40;;;15.80;99.90;;;;;;5134237;27;20046;-61
2022/05/25 10:49:11;;;;;;;92.45;87.85;;;15.80;99.90;;;;;;5115315;27;20392;-61
2022/05/25 10:51:43;;;;;;;105.30;99.53;;;15.60;99.90;;;;;;5132959;27;20067;-61
2022/05/25 10:57:23;;;;;;;88.65;84.85;;;16.00;99.90;;;;;;5133676;27;20096;-61
2022/05/25 10:59:54;;;;;;;83.90;80.20;;;16.40;99.90;;;;;;5133845;27;20452;-61
2022/05/25 11:02:27;;;;;;;74.82;71.43;;;16.70;99.90;;;;;;5127412;27;20040;-61
2022/05/25 11:05:19;;;;;;;68.88;65.82;;;16.90;99.90;;;;;;5125177;27;20504;-61
2022/05/25 11:07:45;;;;;;;80.03;75.25;;;16.80;99.90;;;;;;5131453;27;20053;-61
2022/05/25 11:10:25;;;;;;;65.65;62.63;;;16.70;99.90;;;;;;5130890;27;20096;-61
2022/05/25 11:12:57;;;;;;;72.85;68.38;;;16.70;99.90;;;;;;5132925;28;20045;-61
2022/05/25 11:15:42;;;;;;;103.28;93.72;;;17.00;99.90;;;;;;5114206;28;20486;-61
2022/05/25 11:18:40;;;;;;;73.68;69.97;;;16.90;99.90;;;;;;5124709;28;20047;-61
2022/05/25 11:21:19;;;;;;;61.95;59.13;;;16.70;99.90;;;;;;5114754;28;20043;-61
2022/05/25 11:24:07;;;;;;;64.72;61.83;;;16.50;99.90;;;;;;5132693;28;20547;-61
2022/05/25 11:26:51;;;;;;;70.78;67.05;;;16.50;99.90;;;;;;5131758;28;20039;-61
2022/05/25 11:29:47;;;;;;;63.83;61.00;;;16.50;99.90;;;;;;5133171;28;20517;-61
2022/05/25 11:32:21;;;;;;;69.80;66.60;;;16.50;99.90;;;;;;5114532;28;20043;-62
2022/05/25 11:35:04;;;;;;;144.30;129.15;;;16.30;99.90;;;;;;5132610;28;20039;-61
2022/05/25 11:37:42;;;;;;;;;;;16.20;99.90;;;;;;5133798;28;20058;-61
2022/05/25 11:40:16;;;;;;;88.80;84.72;;;16.10;99.90;;;;;;5132194;28;19980;-62
2022/05/25 11:42:54;;;;;;;87.82;84.05;;;16.10;99.90;;;;;;5115005;28;20500;-61
2022/05/25 11:45:50;;;;;;;92.47;88.00;;;16.00;99.90;;;;;;5133139;28;20112;-61
2022/05/25 11:48:30;;;;;;;117.78;111.72;;;15.50;99.90;;;;;;5113982;28;20046;-61
2022/05/25 11:51:25;;;;;;;92.07;88.03;;;15.10;99.90;;;;;;5133089;28;20122;-61
2022/05/25 11:54:05;;;;;;;80.88;77.18;;;15.00;99.90;;;;;;5132449;28;20039;-61
2022/05/25 11:56:32;;;;;;;90.70;86.53;;;15.20;99.90;;;;;;5132876;28;20437;-61
2022/05/25 11:59:14;;;;;;;95.75;91.55;;;15.40;99.90;;;;;;5133250;28;20524;-61
2022/05/25 12:01:55;;;;;;;93.25;89.20;;;15.80;99.90;;;;;;5132235;28;20039;-61
2022/05/25 12:04:30;;;;;;;95.50;91.30;;;16.00;99.90;;;;;;5135113;27;20114;-61
2022/05/25 12:07:04;;;;;;;93.28;89.18;;;16.00;99.90;;;;;;5137094;27;20082;-61
2022/05/25 12:09:57;;;;;;;88.00;84.07;;;16.20;99.90;;;;;;5135768;27;20039;-61
2022/05/25 12:12:42;;;;;;;83.72;79.38;;;17.00;99.90;;;;;;5137288;27;20051;-61
2022/05/25 12:15:50;;;;;;;69.43;66.22;;;17.90;99.90;;;;;;5136337;27;20074;-61
2022/05/25 12:18:20;;;;;;;60.67;57.72;;;17.70;99.90;;;;;;5136561;27;20130;-61
2022/05/25 12:20:52;;;;;;;57.13;54.35;;;17.20;99.90;;;;;;5136499;27;20043;-61
2022/05/25 12:23:26;;;;;;;57.97;55.17;;;16.90;99.90;;;;;;5136040;27;20054;-61
2022/05/25 12:25:56;;;;;;;56.33;53.63;;;16.70;99.90;;;;;;5136459;27;20089;-61
2022/05/25 12:28:28;;;;;;;259.15;145.27;;;16.50;99.90;;;;;;5136436;27;20066;-61
2022/05/25 12:31:00;;;;;;;135.65;119.88;;;16.30;99.90;;;;;;5135899;27;20043;-61
2022/05/25 12:33:28;;;;;;;850.03;344.42;;;16.20;99.90;;;;;;5136314;27;20094;-61
2022/05/25 12:35:55;;;;;;;381.63;254.73;;;15.70;99.90;;;;;;5135886;27;20042;-61
2022/05/25 12:38:24;;;;;;;844.58;354.42;;;15.30;99.90;;;;;;5117640;27;20082;-61
2022/05/25 12:40:51;;;;;;;94.28;89.28;;;15.20;99.90;;;;;;5135985;27;20137;-61
2022/05/25 12:43:35;;;;;;;385.90;242.82;;;15.70;99.90;;;;;;5135814;27;20547;-61
2022/05/25 12:48:56;;;;;;;326.75;232.38;;;16.20;99.90;;;;;;5115631;28;20051;-61
2022/05/25 12:51:38;;;;;;;890.92;362.70;;;16.40;99.90;;;;;;5113526;28;20043;-61
2022/05/25 12:54:26;;;;;;;578.38;260.90;;;16.60;99.90;;;;;;5115743;27;20054;-61
2022/05/25 12:56:54;;;;;;;352.98;187.43;;;16.80;99.90;;;;;;5135109;27;20047;-61
2022/05/25 12:59:32;;;;;;;79.07;75.50;;;17.10;99.90;;;;;;5136181;27;20108;-61
2022/05/25 13:02:07;;;;;;;76.80;72.90;;;17.50;99.90;;;;;;5115107;28;20397;-61
2022/05/25 13:04:44;;;;;;;61.63;58.38;;;17.50;99.90;;;;;;5129051;27;20043;-61
2022/05/25 13:07:33;;;;;;;55.08;52.35;;;17.60;99.90;;;;;;5135924;27;20087;-61
2022/05/25 13:10:00;;;;;;;45.25;43.15;;;17.80;99.90;;;;;;5135234;27;20094;-61
2022/05/25 13:12:39;;;;;;;54.67;51.15;;;17.70;99.90;;;;;;5113176;28;20047;-61
2022/05/25 13:15:26;;;;;;;70.65;63.08;;;17.80;99.90;;;;;;5114474;28;20044;-61
2022/05/25 13:17:54;;;;;;;41.97;39.72;;;17.70;99.90;;;;;;5114775;28;20047;-61
2022/05/25 13:20:26;;;;;;;37.25;35.30;;;17.80;99.90;;;;;;5113466;28;20066;-61
2022/05/25 13:22:54;;;;;;;45.70;42.75;;;17.80;99.90;;;;;;5134979;27;20049;-61
2022/05/25 13:25:41;;;;;;;310.67;173.10;;;17.80;99.90;;;;;;5130904;27;20050;-61
2022/05/25 13:28:26;;;;;;;37.63;35.20;;;17.50;99.90;;;;;;5114405;28;20101;-61
2022/05/25 13:31:15;;;;;;;57.00;52.95;;;17.40;99.90;;;;;;5126789;27;20100;-61